createdAt,value
2018-06-02T00:00:22.928Z,1008.59
2018-06-02T00:01:22.930Z,1008.54
2018-06-02T00:02:22.943Z,1008.53
2018-06-02T00:03:22.969Z,1008.54
2018-06-02T00:04:22.994Z,1008.54
2018-06-02T00:05:23.022Z,1008.49
2018-06-02T00:06:23.047Z,1008.54
2018-06-02T00:07:23.086Z,1008.54
2018-06-02T00:08:23.088Z,1008.52
2018-06-02T00:09:23.111Z,1008.49
2018-06-02T00:10:23.137Z,1008.51
2018-06-02T00:11:23.226Z,1008.51
2018-06-02T00:12:23.190Z,1008.51
2018-06-02T00:13:23.215Z,1008.55
2018-06-02T00:14:23.235Z,1008.53
2018-06-02T00:15:23.255Z,1008.51
2018-06-02T00:16:23.280Z,1008.54
2018-06-02T00:17:23.306Z,1008.56
2018-06-02T00:18:23.332Z,1008.60
2018-06-02T00:19:23.358Z,1008.59
2018-06-02T00:20:23.373Z,1008.63
2018-06-02T00:21:23.401Z,1008.61
2018-06-02T00:22:23.424Z,1008.60
2018-06-02T00:23:23.450Z,1008.55
2018-06-02T00:24:23.475Z,1008.61
2018-06-02T00:25:23.503Z,1008.55
2018-06-02T00:26:23.515Z,1008.59
2018-06-02T00:27:23.539Z,1008.57
2018-06-02T00:28:23.566Z,1008.60
2018-06-02T00:29:23.594Z,1008.61
2018-06-02T00:30:23.618Z,1008.64
2018-06-02T00:31:23.643Z,1008.63
2018-06-02T00:32:23.659Z,1008.61
2018-06-02T00:33:23.684Z,1008.64
2018-06-02T00:34:23.710Z,1008.64
2018-06-02T00:35:23.736Z,1008.61
2018-06-02T00:36:23.762Z,1008.58
2018-06-02T00:37:23.788Z,1008.60
2018-06-02T00:38:23.802Z,1008.62
2018-06-02T00:39:23.827Z,1008.56
2018-06-02T00:40:23.853Z,1008.56
2018-06-02T00:41:23.878Z,1008.61
2018-06-02T00:42:23.904Z,1008.63
2018-06-02T00:43:23.931Z,1008.60
2018-06-02T00:44:23.959Z,1008.59
2018-06-02T00:45:23.974Z,1008.61
2018-06-02T00:46:23.996Z,1008.61
2018-06-02T00:47:24.022Z,1008.61
2018-06-02T00:48:24.048Z,1008.63
2018-06-02T00:49:24.074Z,1008.61
2018-06-02T00:50:24.088Z,1008.59
2018-06-02T00:51:24.112Z,1008.62
2018-06-02T00:52:24.140Z,1008.61
2018-06-02T00:53:24.165Z,1008.59
2018-06-02T00:54:24.190Z,1008.58
2018-06-02T00:55:24.216Z,1008.59
2018-06-02T00:56:24.243Z,1008.58
2018-06-02T00:57:24.256Z,1008.62
2018-06-02T00:58:24.282Z,1008.61
2018-06-02T00:59:24.307Z,1008.59
2018-06-02T01:00:24.333Z,1008.57
2018-06-02T01:01:24.367Z,1008.61
2018-06-02T01:02:24.375Z,1008.61
2018-06-02T01:03:24.398Z,1008.60
2018-06-02T01:04:24.440Z,1008.62
2018-06-02T01:05:24.451Z,1008.63
2018-06-02T01:06:24.480Z,1008.67
2018-06-02T01:07:24.501Z,1008.64
2018-06-02T01:08:24.527Z,1008.66
2018-06-02T01:09:24.545Z,1008.68
2018-06-02T01:10:24.568Z,1008.66
2018-06-02T01:11:24.594Z,1008.69
2018-06-02T01:12:24.619Z,1008.70
2018-06-02T01:13:24.647Z,1008.68
2018-06-02T01:14:24.672Z,1008.73
2018-06-02T01:15:24.689Z,1008.74
2018-06-02T01:16:24.710Z,1008.74
2018-06-02T01:17:24.738Z,1008.74
2018-06-02T01:18:24.762Z,1008.73
2018-06-02T01:19:24.788Z,1008.74
2018-06-02T01:20:24.829Z,1008.70
2018-06-02T01:21:24.828Z,1008.65
2018-06-02T01:22:24.858Z,1008.70
2018-06-02T01:23:24.880Z,1008.65
2018-06-02T01:24:24.907Z,1008.65
2018-06-02T01:25:24.932Z,1008.67
2018-06-02T01:26:24.957Z,1008.64
2018-06-02T01:27:24.970Z,1008.67
2018-06-02T01:28:24.997Z,1008.64
2018-06-02T01:29:25.025Z,1008.65
2018-06-02T01:30:25.061Z,1008.67
2018-06-02T01:31:25.075Z,1008.68
2018-06-02T01:32:25.108Z,1008.67
2018-06-02T01:33:25.114Z,1008.67
2018-06-02T01:34:25.142Z,1008.68
2018-06-02T01:35:25.166Z,1008.69
2018-06-02T01:36:25.193Z,1008.73
2018-06-02T01:37:25.218Z,1008.72
2018-06-02T01:38:25.235Z,1008.76
2018-06-02T01:39:25.256Z,1008.77
2018-06-02T01:40:25.283Z,1008.76
2018-06-02T01:41:25.308Z,1008.77
2018-06-02T01:42:25.346Z,1008.75
2018-06-02T01:43:25.359Z,1008.72
2018-06-02T01:44:25.386Z,1008.72
2018-06-02T01:45:25.399Z,1008.70
2018-06-02T01:46:25.425Z,1008.68
2018-06-02T01:47:25.452Z,1008.64
2018-06-02T01:48:25.477Z,1008.63
2018-06-02T01:49:25.503Z,1008.63
2018-06-02T01:50:25.517Z,1008.62
2018-06-02T01:51:25.543Z,1008.60
2018-06-02T01:52:25.568Z,1008.60
2018-06-02T01:53:25.593Z,1008.62
2018-06-02T01:54:25.620Z,1008.61
2018-06-02T01:55:25.647Z,1008.63
2018-06-02T01:56:25.661Z,1008.65
2018-06-02T01:57:25.697Z,1008.62
2018-06-02T01:58:25.711Z,1008.66
2018-06-02T01:59:25.738Z,1008.62
2018-06-02T02:00:25.764Z,1008.62
2018-06-02T02:01:25.790Z,1008.61
2018-06-02T02:02:25.803Z,1008.64
2018-06-02T02:03:25.876Z,1008.63
2018-06-02T02:04:25.854Z,1008.67
2018-06-02T02:05:25.881Z,1008.66
2018-06-02T02:06:25.906Z,1008.67
2018-06-02T02:07:25.931Z,1008.65
2018-06-02T02:08:25.946Z,1008.70
2018-06-02T02:09:25.972Z,1008.71
2018-06-02T02:10:25.999Z,1008.67
2018-06-02T02:11:26.024Z,1008.67
2018-06-02T02:12:26.050Z,1008.69
2018-06-02T02:13:26.075Z,1008.67
2018-06-02T02:14:26.093Z,1008.71
2018-06-02T02:15:26.114Z,1008.70
2018-06-02T02:16:26.141Z,1008.74
2018-06-02T02:17:26.179Z,1008.75
2018-06-02T02:18:26.191Z,1008.76
2018-06-02T02:19:26.219Z,1008.76
2018-06-02T02:20:26.232Z,1008.75
2018-06-02T02:21:26.258Z,1008.81
2018-06-02T02:22:26.283Z,1008.78
2018-06-02T02:23:26.309Z,1008.81
2018-06-02T02:24:26.334Z,1008.81
2018-06-02T02:25:26.349Z,1008.80
2018-06-02T02:26:26.374Z,1008.76
2018-06-02T02:27:26.400Z,1008.73
2018-06-02T02:28:26.425Z,1008.73
2018-06-02T02:29:26.451Z,1008.74
2018-06-02T02:30:26.491Z,1008.69
2018-06-02T02:31:26.496Z,1008.75
2018-06-02T02:32:26.520Z,1008.77
2018-06-02T02:33:26.544Z,1008.72
2018-06-02T02:34:26.569Z,1008.76
2018-06-02T02:35:26.595Z,1008.79
2018-06-02T02:36:26.621Z,1008.75
2018-06-02T02:37:26.639Z,1008.79
2018-06-02T02:38:26.660Z,1008.79
2018-06-02T02:39:26.699Z,1008.85
2018-06-02T02:40:26.711Z,1008.84
2018-06-02T02:41:26.738Z,1008.84
2018-06-02T02:42:26.763Z,1008.82
2018-06-02T02:43:26.777Z,1008.84
2018-06-02T02:44:26.807Z,1008.85
2018-06-02T02:45:26.840Z,1008.87
2018-06-02T02:46:26.859Z,1008.82
2018-06-02T02:47:26.883Z,1008.85
2018-06-02T02:48:26.898Z,1008.88
2018-06-02T02:49:26.920Z,1008.89
2018-06-02T02:50:26.949Z,1008.91
2018-06-02T02:51:26.974Z,1008.91
2018-06-02T02:52:26.998Z,1008.93
2018-06-02T02:53:27.025Z,1008.92
2018-06-02T02:54:27.049Z,1008.95
2018-06-02T02:55:27.064Z,1008.94
2018-06-02T02:56:27.089Z,1008.91
2018-06-02T02:57:27.116Z,1008.88
2018-06-02T02:58:27.141Z,1008.87
2018-06-02T02:59:27.159Z,1008.92
2018-06-02T03:00:27.181Z,1008.88
2018-06-02T03:01:27.206Z,1008.94
2018-06-02T03:02:27.233Z,1008.87
2018-06-02T03:03:27.258Z,1008.94
2018-06-02T03:04:27.284Z,1008.92
2018-06-02T03:05:27.299Z,1008.91
2018-06-02T03:06:27.324Z,1008.90
2018-06-02T03:07:27.351Z,1008.95
2018-06-02T03:08:27.375Z,1008.90
2018-06-02T03:09:27.405Z,1008.95
2018-06-02T03:10:27.427Z,1008.93
2018-06-02T03:11:27.440Z,1008.93
2018-06-02T03:12:27.466Z,1008.94
2018-06-02T03:13:27.492Z,1008.92
2018-06-02T03:14:27.518Z,1008.94
2018-06-02T03:15:27.547Z,1008.94
2018-06-02T03:16:27.576Z,1008.92
2018-06-02T03:17:27.585Z,1008.93
2018-06-02T03:18:27.610Z,1008.93
2018-06-02T03:19:27.635Z,1008.92
2018-06-02T03:20:27.662Z,1008.92
2018-06-02T03:21:27.690Z,1008.95
2018-06-02T03:22:27.700Z,1008.94
2018-06-02T03:23:27.726Z,1008.95
2018-06-02T03:24:27.764Z,1008.91
2018-06-02T03:25:27.778Z,1008.98
2018-06-02T03:26:28.108Z,1008.94
2018-06-02T03:27:27.830Z,1008.96
2018-06-02T03:28:27.843Z,1008.95
2018-06-02T03:29:27.870Z,1008.96
2018-06-02T03:30:27.897Z,1008.94
2018-06-02T03:31:28.175Z,1008.93
2018-06-02T03:32:27.948Z,1008.94
2018-06-02T03:33:27.976Z,1008.96
2018-06-02T03:34:27.986Z,1008.93
2018-06-02T03:35:28.012Z,1008.92
2018-06-02T03:36:28.038Z,1008.95
2018-06-02T03:37:28.066Z,1008.96
2018-06-02T03:38:28.090Z,1008.93
2018-06-02T03:39:28.121Z,1008.93
2018-06-02T03:40:28.129Z,1008.94
2018-06-02T03:41:28.156Z,1008.95
2018-06-02T03:42:28.182Z,1008.94
2018-06-02T03:43:28.208Z,1008.94
2018-06-02T03:44:28.233Z,1008.93
2018-06-02T03:45:28.249Z,1008.97
2018-06-02T03:46:28.272Z,1008.97
2018-06-02T03:47:28.299Z,1008.97
2018-06-02T03:48:28.323Z,1008.93
2018-06-02T03:49:28.351Z,1008.95
2018-06-02T03:50:28.374Z,1008.94
2018-06-02T03:51:28.391Z,1008.96
2018-06-02T03:52:28.414Z,1008.95
2018-06-02T03:53:28.441Z,1008.95
2018-06-02T03:54:28.467Z,1008.93
2018-06-02T03:55:28.493Z,1008.96
2018-06-02T03:56:28.519Z,1008.96
2018-06-02T03:57:28.532Z,1008.99
2018-06-02T03:58:28.557Z,1008.99
2018-06-02T03:59:28.597Z,1008.95
2018-06-02T04:00:28.628Z,1008.98
2018-06-02T04:01:28.635Z,1009.00
2018-06-02T04:02:28.661Z,1009.01
2018-06-02T04:03:28.687Z,1009.01
2018-06-02T04:04:28.703Z,1009.02
2018-06-02T04:05:28.727Z,1009.03
2018-06-02T04:06:28.754Z,1009.05
2018-06-02T04:07:28.778Z,1009.07
2018-06-02T04:08:28.806Z,1009.04
2018-06-02T04:09:28.831Z,1009.05
2018-06-02T04:10:28.851Z,1009.07
2018-06-02T04:11:28.869Z,1009.10
2018-06-02T04:12:28.898Z,1009.06
2018-06-02T04:13:28.922Z,1009.03
2018-06-02T04:14:28.949Z,1009.03
2018-06-02T04:15:28.987Z,1009.07
2018-06-02T04:16:28.999Z,1009.10
2018-06-02T04:17:29.014Z,1009.10
2018-06-02T04:18:29.040Z,1009.14
2018-06-02T04:19:29.065Z,1009.15
2018-06-02T04:20:29.097Z,1009.12
2018-06-02T04:21:29.120Z,1009.17
2018-06-02T04:22:29.143Z,1009.15
2018-06-02T04:23:29.169Z,1009.11
2018-06-02T04:24:29.194Z,1009.16
2018-06-02T04:25:29.207Z,1009.13
2018-06-02T04:26:29.235Z,1009.18
2018-06-02T04:27:29.263Z,1009.13
2018-06-02T04:28:29.285Z,1009.16
2018-06-02T04:29:29.311Z,1009.14
2018-06-02T04:30:29.337Z,1009.13
2018-06-02T04:31:29.366Z,1009.17
2018-06-02T04:32:29.393Z,1009.15
2018-06-02T04:33:29.403Z,1009.19
2018-06-02T04:34:29.429Z,1009.23
2018-06-02T04:35:29.461Z,1009.23
2018-06-02T04:36:29.482Z,1009.19
2018-06-02T04:37:29.511Z,1009.23
2018-06-02T04:38:29.533Z,1009.20
2018-06-02T04:39:29.559Z,1009.23
2018-06-02T04:40:29.586Z,1009.18
2018-06-02T04:41:29.631Z,1009.21
2018-06-02T04:42:29.623Z,1009.23
2018-06-02T04:43:29.662Z,1009.21
2018-06-02T04:44:29.674Z,1009.21
2018-06-02T04:45:29.714Z,1009.23
2018-06-02T04:46:29.726Z,1009.21
2018-06-02T04:47:29.752Z,1009.24
2018-06-02T04:48:29.778Z,1009.22
2018-06-02T04:49:29.793Z,1009.24
2018-06-02T04:50:29.819Z,1009.25
2018-06-02T04:51:29.857Z,1009.25
2018-06-02T04:52:29.884Z,1009.24
2018-06-02T04:53:29.897Z,1009.25
2018-06-02T04:54:29.925Z,1009.27
2018-06-02T04:55:29.948Z,1009.27
2018-06-02T04:56:29.978Z,1009.32
2018-06-02T04:57:30.000Z,1009.33
2018-06-02T04:58:30.026Z,1009.28
2018-06-02T04:59:30.071Z,1009.31
2018-06-02T05:00:30.065Z,1009.28
2018-06-02T05:01:30.091Z,1009.26
2018-06-02T05:02:30.123Z,1009.27
2018-06-02T05:03:30.144Z,1009.24
2018-06-02T05:04:30.198Z,1009.27
2018-06-02T05:05:30.194Z,1009.26
2018-06-02T05:06:30.220Z,1009.27
2018-06-02T05:07:30.245Z,1009.27
2018-06-02T05:08:30.272Z,1009.29
2018-06-02T05:09:30.298Z,1009.27
2018-06-02T05:10:30.313Z,1009.34
2018-06-02T05:11:30.338Z,1009.40
2018-06-02T05:12:30.369Z,1009.30
2018-06-02T05:13:30.389Z,1009.36
2018-06-02T05:14:30.416Z,1009.32
2018-06-02T05:15:30.443Z,1009.36
2018-06-02T05:16:30.469Z,1009.36
2018-06-02T05:17:30.495Z,1009.38
2018-06-02T05:18:30.521Z,1009.39
2018-06-02T05:19:30.549Z,1009.42
2018-06-02T05:20:30.573Z,1009.38
2018-06-02T05:21:30.597Z,1009.44
2018-06-02T05:22:30.624Z,1009.43
2018-06-02T05:23:30.649Z,1009.42
2018-06-02T05:24:30.675Z,1009.47
2018-06-02T05:25:30.688Z,1009.46
2018-06-02T05:26:30.714Z,1009.47
2018-06-02T05:27:30.739Z,1009.46
2018-06-02T05:28:30.767Z,1009.48
2018-06-02T05:29:30.792Z,1009.44
2018-06-02T05:30:30.818Z,1009.46
2018-06-02T05:31:30.844Z,1009.45
2018-06-02T05:32:30.872Z,1009.46
2018-06-02T05:33:30.896Z,1009.46
2018-06-02T05:34:30.921Z,1009.50
2018-06-02T05:35:30.960Z,1009.50
2018-06-02T05:36:30.974Z,1009.49
2018-06-02T05:37:31.001Z,1009.47
2018-06-02T05:38:31.025Z,1009.47
2018-06-02T05:39:31.050Z,1009.47
2018-06-02T05:40:31.082Z,1009.46
2018-06-02T05:41:31.104Z,1009.48
2018-06-02T05:42:31.131Z,1009.49
2018-06-02T05:43:31.158Z,1009.47
2018-06-02T05:44:31.180Z,1009.50
2018-06-02T05:45:31.206Z,1009.50
2018-06-02T05:46:31.232Z,1009.50
2018-06-02T05:47:31.258Z,1009.55
2018-06-02T05:48:31.287Z,1009.50
2018-06-02T05:49:31.314Z,1009.56
2018-06-02T05:50:31.349Z,1009.57
2018-06-02T05:51:31.361Z,1009.56
2018-06-02T05:52:31.392Z,1009.55
2018-06-02T05:53:31.402Z,1009.57
2018-06-02T05:54:31.428Z,1009.54
2018-06-02T05:55:31.465Z,1009.53
2018-06-02T05:56:31.491Z,1009.58
2018-06-02T05:57:31.506Z,1009.58
2018-06-02T05:58:31.532Z,1009.60
2018-06-02T05:59:31.569Z,1009.56
2018-06-02T06:00:31.595Z,1009.58
2018-06-02T06:01:31.608Z,1009.58
2018-06-02T06:02:31.635Z,1009.54
2018-06-02T06:03:31.672Z,1009.58
2018-06-02T06:04:31.699Z,1009.62
2018-06-02T06:05:31.736Z,1009.60
2018-06-02T06:06:31.751Z,1009.58
2018-06-02T06:07:31.777Z,1009.58
2018-06-02T06:08:31.802Z,1009.60
2018-06-02T06:09:31.829Z,1009.58
2018-06-02T06:10:31.854Z,1009.64
2018-06-02T06:11:31.893Z,1009.60
2018-06-02T06:12:31.909Z,1009.63
2018-06-02T06:13:31.931Z,1009.62
2018-06-02T06:14:31.957Z,1009.61
2018-06-02T06:15:31.984Z,1009.59
2018-06-02T06:16:32.010Z,1009.57
2018-06-02T06:17:32.037Z,1009.61
2018-06-02T06:18:32.061Z,1009.59
2018-06-02T06:19:32.132Z,1009.60
2018-06-02T06:20:32.127Z,1009.67
2018-06-02T06:21:32.143Z,1009.65
2018-06-02T06:22:32.164Z,1009.62
2018-06-02T06:23:32.190Z,1009.66
2018-06-02T06:24:32.217Z,1009.63
2018-06-02T06:25:32.249Z,1009.63
2018-06-02T06:26:32.282Z,1009.68
2018-06-02T06:27:32.295Z,1009.69
2018-06-02T06:28:32.334Z,1009.72
2018-06-02T06:29:32.360Z,1009.73
2018-06-02T06:30:32.386Z,1009.78
2018-06-02T06:31:32.415Z,1009.77
2018-06-02T06:32:32.438Z,1009.73
2018-06-02T06:33:32.463Z,1009.71
2018-06-02T06:34:32.489Z,1009.71
2018-06-02T06:35:32.521Z,1009.68
2018-06-02T06:36:32.541Z,1009.66
2018-06-02T06:37:32.567Z,1009.65
2018-06-02T06:38:32.594Z,1009.71
2018-06-02T06:39:32.619Z,1009.67
2018-06-02T06:40:32.670Z,1009.67
2018-06-02T06:41:32.684Z,1009.59
2018-06-02T06:42:32.709Z,1009.61
2018-06-02T06:43:32.737Z,1009.58
2018-06-02T06:44:32.793Z,1009.58
2018-06-02T06:45:32.786Z,1009.60
2018-06-02T06:46:32.840Z,1009.60
2018-06-02T06:47:32.840Z,1009.56
2018-06-02T06:48:32.877Z,1009.58
2018-06-02T06:49:32.903Z,1009.61
2018-06-02T06:50:32.972Z,1009.61
2018-06-02T06:51:32.955Z,1009.63
2018-06-02T06:52:32.980Z,1009.63
2018-06-02T06:53:33.007Z,1009.64
2018-06-02T06:54:33.045Z,1009.60
2018-06-02T06:55:33.070Z,1009.65
2018-06-02T06:56:33.100Z,1009.65
2018-06-02T06:57:33.127Z,1009.65
2018-06-02T06:58:33.148Z,1009.68
2018-06-02T06:59:33.174Z,1009.67
2018-06-02T07:00:33.213Z,1009.67
2018-06-02T07:01:33.240Z,1009.67
2018-06-02T07:02:33.267Z,1009.69
2018-06-02T07:03:33.290Z,1009.70
2018-06-02T07:04:33.317Z,1009.65
2018-06-02T07:05:33.355Z,1009.69
2018-06-02T07:06:33.381Z,1009.73
2018-06-02T07:07:33.406Z,1009.75
2018-06-02T07:08:33.433Z,1009.72
2018-06-02T07:09:33.476Z,1009.70
2018-06-02T07:10:33.497Z,1009.73
2018-06-02T07:11:33.524Z,1009.74
2018-06-02T07:12:33.561Z,1009.71
2018-06-02T07:13:33.587Z,1009.68
2018-06-02T07:14:33.614Z,1009.64
2018-06-02T07:15:33.652Z,1009.65
2018-06-02T07:16:33.679Z,1009.70
2018-06-02T07:17:33.703Z,1009.71
2018-06-02T07:18:33.742Z,1009.72
2018-06-02T07:19:33.768Z,1009.73
2018-06-02T07:20:33.794Z,1009.72
2018-06-02T07:21:33.832Z,1009.75
2018-06-02T07:22:33.860Z,1009.77
2018-06-02T07:23:33.884Z,1009.78
2018-06-02T07:24:33.935Z,1009.74
2018-06-02T07:25:33.948Z,1009.74
2018-06-02T07:26:33.977Z,1009.80
2018-06-02T07:27:34.046Z,1009.76
2018-06-02T07:28:34.039Z,1009.80
2018-06-02T07:29:34.065Z,1009.84
2018-06-02T07:30:34.103Z,1009.87
2018-06-02T07:31:34.129Z,1009.93
2018-06-02T07:32:34.167Z,1009.87
2018-06-02T07:33:34.195Z,1009.82
2018-06-02T07:34:34.220Z,1009.90
2018-06-02T07:35:34.245Z,1009.96
2018-06-02T07:36:34.286Z,1009.98
2018-06-02T07:37:34.311Z,1009.95
2018-06-02T07:38:34.348Z,1009.98
2018-06-02T07:39:34.374Z,1010.11
2018-06-02T07:40:34.403Z,1009.96
2018-06-02T07:41:34.440Z,1009.89
2018-06-02T07:42:34.463Z,1009.95
2018-06-02T07:43:34.503Z,1010.04
2018-06-02T07:44:34.529Z,1009.99
2018-06-02T07:45:34.555Z,1010.03
2018-06-02T07:46:34.592Z,1010.03
2018-06-02T07:47:34.619Z,1010.04
2018-06-02T07:48:34.657Z,1010.18
2018-06-02T07:49:34.686Z,1010.25
2018-06-02T07:50:34.721Z,1010.12
2018-06-02T07:51:34.748Z,1010.10
2018-06-02T07:52:34.786Z,1010.18
2018-06-02T07:53:34.813Z,1010.15
2018-06-02T07:54:34.853Z,1010.13
2018-06-02T07:55:34.889Z,1010.09
2018-06-02T07:56:34.916Z,1010.05
2018-06-02T07:57:34.972Z,1010.05
2018-06-02T07:58:34.985Z,1010.02
2018-06-02T07:59:35.017Z,1010.06
2018-06-02T08:00:35.055Z,1010.06
2018-06-02T08:01:35.087Z,1010.00
2018-06-02T08:02:35.120Z,1010.00
2018-06-02T08:03:35.158Z,1010.09
2018-06-02T08:04:35.184Z,1010.03
2018-06-02T08:05:35.223Z,1010.05
2018-06-02T08:06:35.260Z,1009.96
2018-06-02T08:07:35.288Z,1009.94
2018-06-02T08:08:35.357Z,1009.92
2018-06-02T08:09:35.365Z,1010.00
2018-06-02T08:10:35.390Z,1010.01
2018-06-02T08:11:35.431Z,1009.91
2018-06-02T08:12:35.466Z,1010.06
2018-06-02T08:13:35.493Z,1010.01
2018-06-02T08:14:35.531Z,1010.08
2018-06-02T08:15:35.569Z,1010.00
2018-06-02T08:16:35.608Z,1009.91
2018-06-02T08:17:35.634Z,1009.91
2018-06-02T08:18:35.673Z,1010.20
2018-06-02T08:19:35.711Z,1010.24
2018-06-02T08:20:35.754Z,1010.12
2018-06-02T08:21:35.774Z,1010.03
2018-06-02T08:22:35.813Z,1009.91
2018-06-02T08:23:35.843Z,1010.04
2018-06-02T08:24:35.878Z,1010.02
2018-06-02T08:25:35.917Z,1009.98
2018-06-02T08:26:35.944Z,1010.04
2018-06-02T08:27:35.980Z,1010.07
2018-06-02T08:28:36.020Z,1010.07
2018-06-02T08:29:36.057Z,1010.02
2018-06-02T08:30:36.085Z,1010.10
2018-06-02T08:31:36.122Z,1010.20
2018-06-02T08:32:36.159Z,1010.20
2018-06-02T08:33:36.215Z,1010.14
2018-06-02T08:34:36.228Z,1010.22
2018-06-02T08:35:36.262Z,1010.26
2018-06-02T08:36:36.304Z,1010.22
2018-06-02T08:37:36.328Z,1010.10
2018-06-02T08:38:36.366Z,1010.04
2018-06-02T08:39:36.403Z,1010.15
2018-06-02T08:40:36.441Z,1010.08
2018-06-02T08:41:36.468Z,1010.15
2018-06-02T08:42:36.508Z,1010.19
2018-06-02T08:43:36.544Z,1010.20
2018-06-02T08:44:36.583Z,1010.23
2018-06-02T08:45:36.609Z,1010.16
2018-06-02T08:46:36.647Z,1010.03
2018-06-02T08:47:36.685Z,1010.00
2018-06-02T08:48:36.723Z,1010.01
2018-06-02T08:49:36.750Z,1009.98
2018-06-02T08:50:36.789Z,1010.02
2018-06-02T08:51:36.827Z,1010.06
2018-06-02T08:52:36.871Z,1010.09
2018-06-02T08:53:36.894Z,1010.07
2018-06-02T08:54:36.929Z,1010.12
2018-06-02T08:55:36.955Z,1010.17
2018-06-02T08:56:36.994Z,1010.20
2018-06-02T08:57:37.020Z,1010.25
2018-06-02T08:58:37.057Z,1010.24
2018-06-02T08:59:37.100Z,1010.25
2018-06-02T09:00:37.123Z,1010.23
2018-06-02T09:01:37.161Z,1010.28
2018-06-02T09:02:37.190Z,1010.24
2018-06-02T09:03:37.226Z,1010.23
2018-06-02T09:04:37.264Z,1010.19
2018-06-02T09:05:37.289Z,1010.15
2018-06-02T09:06:37.332Z,1010.15
2018-06-02T09:07:37.358Z,1010.20
2018-06-02T09:08:37.392Z,1010.20
2018-06-02T09:09:37.419Z,1010.19
2018-06-02T09:10:37.456Z,1010.14
2018-06-02T09:11:37.495Z,1010.06
2018-06-02T09:12:37.521Z,1010.01
2018-06-02T09:13:37.560Z,1010.03
2018-06-02T09:14:37.587Z,1009.99
2018-06-02T09:15:37.650Z,1010.01
2018-06-02T09:16:37.649Z,1010.03
2018-06-02T09:17:37.689Z,1010.02
2018-06-02T09:18:37.715Z,1010.06
2018-06-02T09:19:37.753Z,1010.05
2018-06-02T09:20:37.791Z,1010.06
2018-06-02T09:21:37.817Z,1010.11
2018-06-02T09:22:37.844Z,1010.12
2018-06-02T09:23:37.881Z,1010.26
2018-06-02T09:24:37.907Z,1010.28
2018-06-02T09:25:37.946Z,1010.23
2018-06-02T09:26:37.972Z,1010.20
2018-06-02T09:27:38.009Z,1010.26
2018-06-02T09:28:38.035Z,1010.24
2018-06-02T09:29:38.074Z,1010.25
2018-06-02T09:30:38.102Z,1010.21
2018-06-02T09:31:38.138Z,1010.24
2018-06-02T09:32:38.178Z,1010.24
2018-06-02T09:33:38.208Z,1010.26
2018-06-02T09:34:38.243Z,1010.25
2018-06-02T09:35:38.283Z,1010.32
2018-06-02T09:36:38.333Z,1010.29
2018-06-02T09:37:38.358Z,1010.15
2018-06-02T09:38:38.383Z,1010.17
2018-06-02T09:39:38.420Z,1010.23
2018-06-02T09:40:38.463Z,1010.30
2018-06-02T09:41:38.497Z,1010.33
2018-06-02T09:42:38.536Z,1010.30
2018-06-02T09:43:38.575Z,1010.33
2018-06-02T09:44:38.613Z,1010.40
2018-06-02T09:45:38.639Z,1010.42
2018-06-02T09:46:38.677Z,1010.43
2018-06-02T09:47:38.744Z,1010.47
2018-06-02T09:48:38.757Z,1010.53
2018-06-02T09:49:38.792Z,1010.51
2018-06-02T09:50:38.835Z,1010.53
2018-06-02T09:51:38.871Z,1010.47
2018-06-02T09:52:38.897Z,1010.49
2018-06-02T09:53:38.934Z,1010.48
2018-06-02T09:54:38.972Z,1010.43
2018-06-02T09:55:39.010Z,1010.44
2018-06-02T09:56:39.050Z,1010.35
2018-06-02T09:57:39.105Z,1010.37
2018-06-02T09:58:39.112Z,1010.35
2018-06-02T09:59:39.152Z,1010.34
2018-06-02T10:00:39.190Z,1010.35
2018-06-02T10:01:39.232Z,1010.33
2018-06-02T10:02:39.255Z,1010.35
2018-06-02T10:03:39.293Z,1010.35
2018-06-02T10:04:39.365Z,1010.32
2018-06-02T10:05:39.370Z,1010.31
2018-06-02T10:06:39.397Z,1010.28
2018-06-02T10:07:39.437Z,1010.31
2018-06-02T10:08:39.471Z,1010.32
2018-06-02T10:09:39.499Z,1010.37
2018-06-02T10:10:39.613Z,1010.36
2018-06-02T10:11:39.575Z,1010.33
2018-06-02T10:12:39.615Z,1010.33
2018-06-02T10:13:39.639Z,1010.28
2018-06-02T10:14:39.678Z,1010.28
2018-06-02T10:15:39.717Z,1010.32
2018-06-02T10:16:39.743Z,1010.41
2018-06-02T10:17:39.781Z,1010.39
2018-06-02T10:18:39.819Z,1010.35
2018-06-02T10:19:39.845Z,1010.34
2018-06-02T10:20:39.896Z,1010.37
2018-06-02T10:21:39.979Z,1010.38
2018-06-02T10:22:39.947Z,1010.41
2018-06-02T10:23:39.987Z,1010.39
2018-06-02T10:24:40.025Z,1010.38
2018-06-02T10:25:40.052Z,1010.39
2018-06-02T10:26:40.089Z,1010.32
2018-06-02T10:27:40.129Z,1010.30
2018-06-02T10:28:40.166Z,1010.38
2018-06-02T10:29:40.248Z,1010.34
2018-06-02T10:30:40.246Z,1010.34
2018-06-02T10:31:40.281Z,1010.25
2018-06-02T10:32:40.322Z,1010.29
2018-06-02T10:33:40.345Z,1010.38
2018-06-02T10:34:40.383Z,1010.38
2018-06-02T10:35:40.508Z,1010.36
2018-06-02T10:36:40.485Z,1010.30
2018-06-02T10:37:40.512Z,1010.38
2018-06-02T10:38:40.550Z,1010.44
2018-06-02T10:39:40.590Z,1010.37
2018-06-02T10:40:40.627Z,1010.45
2018-06-02T10:41:40.665Z,1010.44
2018-06-02T10:42:40.703Z,1010.30
2018-06-02T10:43:40.746Z,1010.29
2018-06-02T10:44:40.813Z,1010.35
2018-06-02T10:45:40.820Z,1010.27
2018-06-02T10:46:40.857Z,1010.31
2018-06-02T10:47:40.906Z,1010.27
2018-06-02T10:48:40.936Z,1010.28
2018-06-02T10:49:40.986Z,1010.28
2018-06-02T10:50:41.026Z,1010.29
2018-06-02T10:51:41.063Z,1010.22
2018-06-02T10:52:41.101Z,1010.17
2018-06-02T10:53:41.138Z,1010.16
2018-06-02T10:54:41.191Z,1010.07
2018-06-02T10:55:41.234Z,1010.10
2018-06-02T10:56:41.266Z,1010.17
2018-06-02T10:57:41.305Z,1010.17
2018-06-02T10:58:41.347Z,1010.12
2018-06-02T10:59:41.406Z,1010.17
2018-06-02T11:00:41.437Z,1010.18
2018-06-02T11:01:41.521Z,1010.12
2018-06-02T11:02:41.512Z,1010.05
2018-06-02T11:03:41.561Z,1010.15
2018-06-02T11:04:41.599Z,1010.19
2018-06-02T11:05:41.638Z,1010.19
2018-06-02T11:06:41.675Z,1010.19
2018-06-02T11:07:41.716Z,1010.16
2018-06-02T11:08:41.753Z,1010.17
2018-06-02T11:09:41.791Z,1010.13
2018-06-02T11:10:41.830Z,1010.21
2018-06-02T11:11:41.880Z,1010.17
2018-06-02T11:12:41.919Z,1010.10
2018-06-02T11:13:41.956Z,1010.22
2018-06-02T11:14:41.996Z,1010.12
2018-06-02T11:15:42.033Z,1010.12
2018-06-02T11:16:42.073Z,1010.05
2018-06-02T11:17:42.099Z,1010.14
2018-06-02T11:18:42.137Z,1010.20
2018-06-02T11:19:42.180Z,1010.26
2018-06-02T11:20:42.213Z,1010.23
2018-06-02T11:21:42.253Z,1010.30
2018-06-02T11:22:42.289Z,1010.31
2018-06-02T11:23:42.330Z,1010.34
2018-06-02T11:24:42.367Z,1010.36
2018-06-02T11:25:42.416Z,1010.22
2018-06-02T11:26:42.443Z,1010.20
2018-06-02T11:27:42.484Z,1010.25
2018-06-02T11:28:42.526Z,1010.29
2018-06-02T11:29:42.548Z,1010.23
2018-06-02T11:30:42.585Z,1010.31
2018-06-02T11:31:42.623Z,1010.31
2018-06-02T11:32:42.665Z,1010.34
2018-06-02T11:33:42.700Z,1010.34
2018-06-02T11:34:42.744Z,1010.32
2018-06-02T11:35:42.780Z,1010.30
2018-06-02T11:36:43.015Z,1010.25
2018-06-02T11:37:42.853Z,1010.30
2018-06-02T11:38:42.895Z,1010.34
2018-06-02T11:39:42.930Z,1010.33
2018-06-02T11:40:42.958Z,1010.27
2018-06-02T11:41:42.995Z,1010.27
2018-06-02T11:42:43.034Z,1010.29
2018-06-02T11:43:43.073Z,1010.27
2018-06-02T11:44:43.109Z,1010.33
2018-06-02T11:45:43.149Z,1010.34
2018-06-02T11:46:43.179Z,1010.31
2018-06-02T11:47:43.216Z,1010.31
2018-06-02T11:48:43.256Z,1010.32
2018-06-02T11:49:43.289Z,1010.36
2018-06-02T11:50:43.316Z,1010.32
2018-06-02T11:51:43.355Z,1010.32
2018-06-02T11:52:43.402Z,1010.32
2018-06-02T11:53:43.435Z,1010.33
2018-06-02T11:54:43.456Z,1010.32
2018-06-02T11:55:43.495Z,1010.33
2018-06-02T11:56:43.765Z,1010.34
2018-06-02T11:57:43.571Z,1010.37
2018-06-02T11:58:43.602Z,1010.45
2018-06-02T11:59:43.652Z,1010.46
2018-06-02T12:00:43.675Z,1010.47
2018-06-02T12:01:43.701Z,1010.47
2018-06-02T12:02:43.740Z,1010.50
2018-06-02T12:03:43.781Z,1010.45
2018-06-02T12:04:43.816Z,1010.54
2018-06-02T12:05:43.845Z,1010.51